sensor_id;sensor_type;location;lat;lon;timestamp;temperature;humidity
5352;DHT22;2698;51.454;6.736;2022-07-12T00:01:40;16.60;99.90
5352;DHT22;2698;51.454;6.736;2022-07-12T00:04:07;16.60;99.90
5352;DHT22;2698;51.454;6.736;2022-07-12T00:06:35;16.50;99.90
5352;DHT22;2698;51.454;6.736;2022-07-12T00:09:03;16.50;99.90
5352;DHT22;2698;51.454;6.736;2022-07-12T00:11:29;16.50;99.90
5352;DHT22;2698;51.454;6.736;2022-07-12T00:13:56;16.40;99.90
5352;DHT22;2698;51.454;6.736;2022-07-12T00:16:23;16.40;99.90
5352;DHT22;2698;51.454;6.736;2022-07-12T00:18:50;16.40;99.90
5352;DHT22;2698;51.454;6.736;2022-07-12T00:21:17;16.30;99.90
5352;DHT22;2698;51.454;6.736;2022-07-12T00:23:45;16.30;99.90
5352;DHT22;2698;51.454;6.736;2022-07-12T00:26:12;16.20;99.90
5352;DHT22;2698;51.454;6.736;2022-07-12T00:28:39;16.20;99.90
5352;DHT22;2698;51.454;6.736;2022-07-12T00:31:06;16.10;99.90
5352;DHT22;2698;51.454;6.736;2022-07-12T00:33:32;16.10;99.90
5352;DHT22;2698;51.454;6.736;2022-07-12T00:35:59;16.10;99.90
5352;DHT22;2698;51.454;6.736;2022-07-12T00:38:26;16.10;99.90
5352;DHT22;2698;51.454;6.736;2022-07-12T00:40:54;16.10;99.90
5352;DHT22;2698;51.454;6.736;2022-07-12T00:43:21;16.00;99.90
5352;DHT22;2698;51.454;6.736;2022-07-12T00:45:49;16.00;99.90
5352;DHT22;2698;51.454;6.736;2022-07-12T00:48:17;16.00;99.90
5352;DHT22;2698;51.454;6.736;2022-07-12T00:50:44;15.90;99.90
5352;DHT22;2698;51.454;6.736;2022-07-12T00:53:13;16.20;99.90
5352;DHT22;2698;51.454;6.736;2022-07-12T00:55:42;16.20;99.90
5352;DHT22;2698;51.454;6.736;2022-07-12T00:58:10;16.10;99.90
5352;DHT22;2698;51.454;6.736;2022-07-12T01:00:37;16.00;99.90
5352;DHT22;2698;51.454;6.736;2022-07-12T01:03:04;16.00;99.90
5352;DHT22;2698;51.454;6.736;2022-07-12T01:05:31;16.00;99.90
5352;DHT22;2698;51.454;6.736;2022-07-12T01:07:58;15.90;99.90
5352;DHT22;2698;51.454;6.736;2022-07-12T01:10:25;15.90;99.90
5352;DHT22;2698;51.454;6.736;2022-07-12T01:12:52;15.90;99.90
5352;DHT22;2698;51.454;6.736;2022-07-12T01:15:21;15.80;99.90
5352;DHT22;2698;51.454;6.736;2022-07-12T01:17:48;15.80;99.90
5352;DHT22;2698;51.454;6.736;2022-07-12T01:20:16;15.80;99.90
5352;DHT22;2698;51.454;6.736;2022-07-12T01:22:51;15.70;99.90
5352;DHT22;2698;51.454;6.736;2022-07-12T01:25:18;15.80;99.90
5352;DHT22;2698;51.454;6.736;2022-07-12T01:27:45;15.70;99.90
5352;DHT22;2698;51.454;6.736;2022-07-12T01:30:12;15.70;99.90
5352;DHT22;2698;51.454;6.736;2022-07-12T01:32:39;15.60;99.90
5352;DHT22;2698;51.454;6.736;2022-07-12T01:35:07;15.70;99.90
5352;DHT22;2698;51.454;6.736;2022-07-12T01:37:35;15.70;99.90
5352;DHT22;2698;51.454;6.736;2022-07-12T01:40:05;15.60;99.90
5352;DHT22;2698;51.454;6.736;2022-07-12T01:42:33;15.50;99.90
5352;DHT22;2698;51.454;6.736;2022-07-12T01:44:59;15.60;99.90
5352;DHT22;2698;51.454;6.736;2022-07-12T01:47:28;15.60;99.90
5352;DHT22;2698;51.454;6.736;2022-07-12T01:49:55;15.60;99.90
5352;DHT22;2698;51.454;6.736;2022-07-12T01:52:22;15.60;99.90
5352;DHT22;2698;51.454;6.736;2022-07-12T01:54:50;15.50;99.90
5352;DHT22;2698;51.454;6.736;2022-07-12T01:57:19;15.40;99.90
5352;DHT22;2698;51.454;6.736;2022-07-12T01:59:46;15.40;99.90
5352;DHT22;2698;51.454;6.736;2022-07-12T02:02:12;15.40;99.90
5352;DHT22;2698;51.454;6.736;2022-07-12T02:04:39;15.40;99.90
5352;DHT22;2698;51.454;6.736;2022-07-12T02:07:06;15.30;99.90
5352;DHT22;2698;51.454;6.736;2022-07-12T02:09:33;15.10;99.90
5352;DHT22;2698;51.454;6.736;2022-07-12T02:12:01;15.30;99.90
5352;DHT22;2698;51.454;6.736;2022-07-12T02:14:29;15.30;99.90
5352;DHT22;2698;51.454;6.736;2022-07-12T02:16:56;15.30;99.90
5352;DHT22;2698;51.454;6.736;2022-07-12T02:19:22;15.30;99.90
5352;DHT22;2698;51.454;6.736;2022-07-12T02:21:49;15.30;99.90
5352;DHT22;2698;51.454;6.736;2022-07-12T02:24:16;15.30;99.90
5352;DHT22;2698;51.454;6.736;2022-07-12T02:26:43;15.20;99.90
5352;DHT22;2698;51.454;6.736;2022-07-12T02:29:10;15.20;99.90
5352;DHT22;2698;51.454;6.736;2022-07-12T02:31:38;15.20;99.90
5352;DHT22;2698;51.454;6.736;2022-07-12T02:34:06;15.20;99.90
5352;DHT22;2698;51.454;6.736;2022-07-12T02:36:32;15.20;99.90
5352;DHT22;2698;51.454;6.736;2022-07-12T02:39:00;15.20;99.90
5352;DHT22;2698;51.454;6.736;2022-07-12T02:41:29;15.20;99.90
5352;DHT22;2698;51.454;6.736;2022-07-12T02:43:56;15.10;99.90
5352;DHT22;2698;51.454;6.736;2022-07-12T02:46:23;15.10;99.90
5352;DHT22;2698;51.454;6.736;2022-07-12T02:48:52;15.10;99.90
5352;DHT22;2698;51.454;6.736;2022-07-12T02:51:19;15.10;99.90
5352;DHT22;2698;51.454;6.736;2022-07-12T02:53:46;15.10;99.90
5352;DHT22;2698;51.454;6.736;2022-07-12T02:56:12;15.10;99.90
5352;DHT22;2698;51.454;6.736;2022-07-12T02:58:39;15.10;99.90
5352;DHT22;2698;51.454;6.736;2022-07-12T03:01:06;15.00;99.90
5352;DHT22;2698;51.454;6.736;2022-07-12T03:03:33;15.00;99.90
5352;DHT22;2698;51.454;6.736;2022-07-12T03:06:01;15.00;99.90
5352;DHT22;2698;51.454;6.736;2022-07-12T03:08:28;15.00;99.90
5352;DHT22;2698;51.454;6.736;2022-07-12T03:10:55;15.00;99.90
5352;DHT22;2698;51.454;6.736;2022-07-12T03:13:22;15.00;99.90
5352;DHT22;2698;51.454;6.736;2022-07-12T03:15:49;15.10;99.90
5352;DHT22;2698;51.454;6.736;2022-07-12T03:18:16;15.10;99.90
5352;DHT22;2698;51.454;6.736;2022-07-12T03:20:43;15.00;99.90
5352;DHT22;2698;51.454;6.736;2022-07-12T03:23:12;15.00;99.90
5352;DHT22;2698;51.454;6.736;2022-07-12T03:25:38;15.00;99.90
5352;DHT22;2698;51.454;6.736;2022-07-12T03:28:05;15.00;99.90
5352;DHT22;2698;51.454;6.736;2022-07-12T03:30:32;15.00;99.90
5352;DHT22;2698;51.454;6.736;2022-07-12T03:32:59;15.10;99.90
5352;DHT22;2698;51.454;6.736;2022-07-12T03:35:26;15.10;99.90
5352;DHT22;2698;51.454;6.736;2022-07-12T03:37:53;15.10;99.90
5352;DHT22;2698;51.454;6.736;2022-07-12T03:40:21;15.20;99.90
5352;DHT22;2698;51.454;6.736;2022-07-12T03:42:48;15.30;99.90
5352;DHT22;2698;51.454;6.736;2022-07-12T03:45:16;15.30;99.90
5352;DHT22;2698;51.454;6.736;2022-07-12T03:47:43;15.20;99.90
5352;DHT22;2698;51.454;6.736;2022-07-12T03:50:11;15.30;99.90
5352;DHT22;2698;51.454;6.736;2022-07-12T03:52:39;15.30;99.90
5352;DHT22;2698;51.454;6.736;2022-07-12T03:55:07;15.40;99.90
5352;DHT22;2698;51.454;6.736;2022-07-12T03:57:35;15.30;99.90
5352;DHT22;2698;51.454;6.736;2022-07-12T04:00:04;15.40;99.90
5352;DHT22;2698;51.454;6.736;2022-07-12T04:02:33;15.20;99.90
5352;DHT22;2698;51.454;6.736;2022-07-12T04:05:00;15.30;99.90
5352;DHT22;2698;51.454;6.736;2022-07-12T04:07:26;15.20;99.90
5352;DHT22;2698;51.454;6.736;2022-07-12T04:09:53;15.30;99.90
5352;DHT22;2698;51.454;6.736;2022-07-12T04:12:20;15.30;99.90
5352;DHT22;2698;51.454;6.736;2022-07-12T04:14:48;15.30;99.90
5352;DHT22;2698;51.454;6.736;2022-07-12T04:17:15;15.30;99.90
5352;DHT22;2698;51.454;6.736;2022-07-12T04:19:42;15.20;99.90
5352;DHT22;2698;51.454;6.736;2022-07-12T04:22:08;15.20;99.90
5352;DHT22;2698;51.454;6.736;2022-07-12T04:24:35;15.20;99.90
5352;DHT22;2698;51.454;6.736;2022-07-12T04:27:02;15.30;99.90
5352;DHT22;2698;51.454;6.736;2022-07-12T04:29:29;15.30;99.90
5352;DHT22;2698;51.454;6.736;2022-07-12T04:31:57;15.30;99.90
5352;DHT22;2698;51.454;6.736;2022-07-12T04:34:24;15.40;99.90
5352;DHT22;2698;51.454;6.736;2022-07-12T04:36:51;15.40;99.90
5352;DHT22;2698;51.454;6.736;2022-07-12T04:39:18;15.50;99.90
5352;DHT22;2698;51.454;6.736;2022-07-12T04:41:45;15.50;99.90
5352;DHT22;2698;51.454;6.736;2022-07-12T04:44:12;15.60;99.90
5352;DHT22;2698;51.454;6.736;2022-07-12T04:46:39;15.70;99.90
5352;DHT22;2698;51.454;6.736;2022-07-12T04:49:07;15.80;99.90
5352;DHT22;2698;51.454;6.736;2022-07-12T04:51:34;15.90;99.90
5352;DHT22;2698;51.454;6.736;2022-07-12T04:54:01;16.00;99.90
5352;DHT22;2698;51.454;6.736;2022-07-12T04:56:27;16.10;99.90
5352;DHT22;2698;51.454;6.736;2022-07-12T04:58:54;16.20;99.90
5352;DHT22;2698;51.454;6.736;2022-07-12T05:01:21;16.30;99.90
5352;DHT22;2698;51.454;6.736;2022-07-12T05:03:48;16.40;99.90
5352;DHT22;2698;51.454;6.736;2022-07-12T05:06:16;16.80;99.90
5352;DHT22;2698;51.454;6.736;2022-07-12T05:08:43;20.00;99.90
5352;DHT22;2698;51.454;6.736;2022-07-12T05:11:10;22.60;99.90
5352;DHT22;2698;51.454;6.736;2022-07-12T05:13:37;23.70;99.90
5352;DHT22;2698;51.454;6.736;2022-07-12T05:16:06;24.70;99.90
5352;DHT22;2698;51.454;6.736;2022-07-12T05:18:33;25.00;99.90
5352;DHT22;2698;51.454;6.736;2022-07-12T05:21:00;24.70;99.90
5352;DHT22;2698;51.454;6.736;2022-07-12T05:23:28;25.90;99.90
5352;DHT22;2698;51.454;6.736;2022-07-12T05:25:55;25.90;99.90
5352;DHT22;2698;51.454;6.736;2022-07-12T05:28:21;26.50;99.90
5352;DHT22;2698;51.454;6.736;2022-07-12T05:30:48;26.40;99.90
5352;DHT22;2698;51.454;6.736;2022-07-12T05:33:15;26.50;99.90
5352;DHT22;2698;51.454;6.736;2022-07-12T05:35:42;26.60;99.90
5352;DHT22;2698;51.454;6.736;2022-07-12T05:38:09;27.40;99.90
5352;DHT22;2698;51.454;6.736;2022-07-12T05:40:37;27.70;95.50
5352;DHT22;2698;51.454;6.736;2022-07-12T05:43:04;28.00;93.70
5352;DHT22;2698;51.454;6.736;2022-07-12T05:45:30;27.40;92.40
5352;DHT22;2698;51.454;6.736;2022-07-12T05:47:57;26.80;91.70
5352;DHT22;2698;51.454;6.736;2022-07-12T05:50:24;26.50;92.00
5352;DHT22;2698;51.454;6.736;2022-07-12T05:52:51;27.00;91.90
5352;DHT22;2698;51.454;6.736;2022-07-12T05:55:36;26.40;90.90
5352;DHT22;2698;51.454;6.736;2022-07-12T05:58:03;26.40;91.40
5352;DHT22;2698;51.454;6.736;2022-07-12T06:00:30;26.00;92.90
5352;DHT22;2698;51.454;6.736;2022-07-12T06:02:58;25.40;94.80
5352;DHT22;2698;51.454;6.736;2022-07-12T06:05:25;25.20;95.80
5352;DHT22;2698;51.454;6.736;2022-07-12T06:07:52;24.80;99.90
5352;DHT22;2698;51.454;6.736;2022-07-12T06:10:19;24.80;99.90
5352;DHT22;2698;51.454;6.736;2022-07-12T06:12:47;24.80;98.70
5352;DHT22;2698;51.454;6.736;2022-07-12T06:15:14;24.70;99.90
5352;DHT22;2698;51.454;6.736;2022-07-12T06:17:41;24.80;99.90
5352;DHT22;2698;51.454;6.736;2022-07-12T06:20:09;24.90;99.90
5352;DHT22;2698;51.454;6.736;2022-07-12T06:22:36;25.30;99.10
5352;DHT22;2698;51.454;6.736;2022-07-12T06:25:04;25.50;97.40
5352;DHT22;2698;51.454;6.736;2022-07-12T06:27:31;25.20;98.20
5352;DHT22;2698;51.454;6.736;2022-07-12T06:29:59;25.20;97.00
5352;DHT22;2698;51.454;6.736;2022-07-12T06:32:26;25.30;97.60
5352;DHT22;2698;51.454;6.736;2022-07-12T06:34:52;25.60;95.00
5352;DHT22;2698;51.454;6.736;2022-07-12T06:37:19;25.70;95.10
5352;DHT22;2698;51.454;6.736;2022-07-12T06:39:46;26.10;94.60
5352;DHT22;2698;51.454;6.736;2022-07-12T06:42:13;26.20;92.70
5352;DHT22;2698;51.454;6.736;2022-07-12T06:44:40;26.20;92.60
5352;DHT22;2698;51.454;6.736;2022-07-12T06:47:08;26.00;92.40
5352;DHT22;2698;51.454;6.736;2022-07-12T06:49:35;26.30;91.80
5352;DHT22;2698;51.454;6.736;2022-07-12T06:52:03;26.70;91.30
5352;DHT22;2698;51.454;6.736;2022-07-12T06:54:30;26.70;90.60
5352;DHT22;2698;51.454;6.736;2022-07-12T06:56:56;26.60;90.30
5352;DHT22;2698;51.454;6.736;2022-07-12T06:59:23;27.10;89.10
5352;DHT22;2698;51.454;6.736;2022-07-12T07:01:50;26.80;86.60
5352;DHT22;2698;51.454;6.736;2022-07-12T07:04:19;27.20;86.20
5352;DHT22;2698;51.454;6.736;2022-07-12T07:06:46;27.30;86.80
5352;DHT22;2698;51.454;6.736;2022-07-12T07:09:13;27.00;85.80
5352;DHT22;2698;51.454;6.736;2022-07-12T07:11:40;27.60;83.80
5352;DHT22;2698;51.454;6.736;2022-07-12T07:14:07;26.90;84.50
5352;DHT22;2698;51.454;6.736;2022-07-12T07:16:34;27.10;86.90
5352;DHT22;2698;51.454;6.736;2022-07-12T07:19:01;27.40;85.40
5352;DHT22;2698;51.454;6.736;2022-07-12T07:21:29;27.20;84.10
5352;DHT22;2698;51.454;6.736;2022-07-12T07:23:56;27.30;85.40
5352;DHT22;2698;51.454;6.736;2022-07-12T07:26:23;27.30;83.70
5352;DHT22;2698;51.454;6.736;2022-07-12T07:28:50;28.10;82.70
5352;DHT22;2698;51.454;6.736;2022-07-12T07:31:34;27.60;82.30
5352;DHT22;2698;51.454;6.736;2022-07-12T07:34:01;27.80;81.00
5352;DHT22;2698;51.454;6.736;2022-07-12T07:36:30;27.60;79.70
5352;DHT22;2698;51.454;6.736;2022-07-12T07:38:58;27.20;79.60
5352;DHT22;2698;51.454;6.736;2022-07-12T07:41:25;27.40;78.90
5352;DHT22;2698;51.454;6.736;2022-07-12T07:43:51;27.90;78.30
5352;DHT22;2698;51.454;6.736;2022-07-12T07:46:18;28.00;78.60
5352;DHT22;2698;51.454;6.736;2022-07-12T07:48:45;27.90;77.10
5352;DHT22;2698;51.454;6.736;2022-07-12T07:51:12;28.00;76.30
5352;DHT22;2698;51.454;6.736;2022-07-12T07:53:40;26.90;75.70
5352;DHT22;2698;51.454;6.736;2022-07-12T07:56:07;27.20;76.30
5352;DHT22;2698;51.454;6.736;2022-07-12T07:58:34;27.60;76.70
5352;DHT22;2698;51.454;6.736;2022-07-12T08:01:01;27.30;75.00
5352;DHT22;2698;51.454;6.736;2022-07-12T08:03:28;27.10;75.00
5352;DHT22;2698;51.454;6.736;2022-07-12T08:05:54;27.30;75.00
5352;DHT22;2698;51.454;6.736;2022-07-12T08:08:23;27.70;75.20
5352;DHT22;2698;51.454;6.736;2022-07-12T08:10:51;27.20;73.80
5352;DHT22;2698;51.454;6.736;2022-07-12T08:13:18;27.50;74.80
5352;DHT22;2698;51.454;6.736;2022-07-12T08:15:45;27.00;75.60
5352;DHT22;2698;51.454;6.736;2022-07-12T08:18:12;27.30;76.00
5352;DHT22;2698;51.454;6.736;2022-07-12T08:20:38;26.90;76.40
5352;DHT22;2698;51.454;6.736;2022-07-12T08:23:05;26.90;77.80
5352;DHT22;2698;51.454;6.736;2022-07-12T08:25:32;26.80;77.80
5352;DHT22;2698;51.454;6.736;2022-07-12T08:28:00;26.30;78.20
5352;DHT22;2698;51.454;6.736;2022-07-12T08:30:27;26.30;80.00
5352;DHT22;2698;51.454;6.736;2022-07-12T08:32:54;26.50;80.40
5352;DHT22;2698;51.454;6.736;2022-07-12T08:35:21;26.10;81.40
5352;DHT22;2698;51.454;6.736;2022-07-12T08:37:48;26.70;80.90
5352;DHT22;2698;51.454;6.736;2022-07-12T08:40:15;26.30;79.20
5352;DHT22;2698;51.454;6.736;2022-07-12T08:42:42;26.30;80.70
5352;DHT22;2698;51.454;6.736;2022-07-12T08:45:12;26.30;78.00
5352;DHT22;2698;51.454;6.736;2022-07-12T08:47:38;26.20;78.50
5352;DHT22;2698;51.454;6.736;2022-07-12T08:50:13;25.80;78.40
5352;DHT22;2698;51.454;6.736;2022-07-12T08:52:44;25.80;77.60
5352;DHT22;2698;51.454;6.736;2022-07-12T08:55:19;25.30;79.90
5352;DHT22;2698;51.454;6.736;2022-07-12T08:57:47;24.90;83.50
5352;DHT22;2698;51.454;6.736;2022-07-12T09:00:15;25.60;83.50
5352;DHT22;2698;51.454;6.736;2022-07-12T09:02:49;25.90;81.60
5352;DHT22;2698;51.454;6.736;2022-07-12T09:05:17;26.00;80.90
5352;DHT22;2698;51.454;6.736;2022-07-12T09:07:45;25.30;79.60
5352;DHT22;2698;51.454;6.736;2022-07-12T09:10:12;26.00;80.50
5352;DHT22;2698;51.454;6.736;2022-07-12T09:12:40;25.50;78.10
5352;DHT22;2698;51.454;6.736;2022-07-12T09:15:16;25.70;80.50
5352;DHT22;2698;51.454;6.736;2022-07-12T09:17:58;26.00;80.40
5352;DHT22;2698;51.454;6.736;2022-07-12T09:20:26;26.20;79.50
5352;DHT22;2698;51.454;6.736;2022-07-12T09:22:54;26.00;77.80
5352;DHT22;2698;51.454;6.736;2022-07-12T09:25:21;26.30;78.00
5352;DHT22;2698;51.454;6.736;2022-07-12T09:27:51;26.00;77.80
5352;DHT22;2698;51.454;6.736;2022-07-12T09:30:20;26.30;78.60
5352;DHT22;2698;51.454;6.736;2022-07-12T09:32:58;26.20;77.50
5352;DHT22;2698;51.454;6.736;2022-07-12T09:35:43;26.30;77.50
5352;DHT22;2698;51.454;6.736;2022-07-12T09:38:28;26.30;76.60
5352;DHT22;2698;51.454;6.736;2022-07-12T09:40:55;26.40;75.60
5352;DHT22;2698;51.454;6.736;2022-07-12T09:43:23;26.30;76.40
5352;DHT22;2698;51.454;6.736;2022-07-12T09:45:51;26.80;75.20
5352;DHT22;2698;51.454;6.736;2022-07-12T09:48:19;26.50;74.20
5352;DHT22;2698;51.454;6.736;2022-07-12T09:50:48;26.30;74.60
5352;DHT22;2698;51.454;6.736;2022-07-12T09:53:20;26.30;74.20
5352;DHT22;2698;51.454;6.736;2022-07-12T09:55:51;26.10;76.00
5352;DHT22;2698;51.454;6.736;2022-07-12T09:58:31;26.60;77.40
5352;DHT22;2698;51.454;6.736;2022-07-12T10:01:03;26.90;73.60
5352;DHT22;2698;51.454;6.736;2022-07-12T10:03:30;26.80;72.00
5352;DHT22;2698;51.454;6.736;2022-07-12T10:06:00;27.10;71.50
5352;DHT22;2698;51.454;6.736;2022-07-12T10:08:28;26.90;70.30
5352;DHT22;2698;51.454;6.736;2022-07-12T10:10:56;26.60;71.20
5352;DHT22;2698;51.454;6.736;2022-07-12T10:13:23;26.80;69.90
5352;DHT22;2698;51.454;6.736;2022-07-12T10:15:51;26.90;70.60
5352;DHT22;2698;51.454;6.736;2022-07-12T10:18:25;27.20;68.40
5352;DHT22;2698;51.454;6.736;2022-07-12T10:20:52;27.40;67.00
5352;DHT22;2698;51.454;6.736;2022-07-12T10:23:33;27.20;65.80
5352;DHT22;2698;51.454;6.736;2022-07-12T10:26:25;27.40;65.10
5352;DHT22;2698;51.454;6.736;2022-07-12T10:29:02;27.50;63.60
5352;DHT22;2698;51.454;6.736;2022-07-12T10:31:33;27.20;63.00
5352;DHT22;2698;51.454;6.736;2022-07-12T10:34:13;27.60;64.50
5352;DHT22;2698;51.454;6.736;2022-07-12T10:37:10;27.20;64.50
5352;DHT22;2698;51.454;6.736;2022-07-12T10:39:37;26.60;63.20
5352;DHT22;2698;51.454;6.736;2022-07-12T10:42:18;27.00;66.10
5352;DHT22;2698;51.454;6.736;2022-07-12T10:44:46;27.30;64.70
5352;DHT22;2698;51.454;6.736;2022-07-12T10:47:16;27.50;62.90
5352;DHT22;2698;51.454;6.736;2022-07-12T10:49:48;27.00;60.70
5352;DHT22;2698;51.454;6.736;2022-07-12T10:52:22;27.20;61.50
5352;DHT22;2698;51.454;6.736;2022-07-12T10:55:17;27.60;62.60
5352;DHT22;2698;51.454;6.736;2022-07-12T10:57:45;27.50;58.70
5352;DHT22;2698;51.454;6.736;2022-07-12T11:00:15;27.40;59.00
5352;DHT22;2698;51.454;6.736;2022-07-12T11:02:42;27.60;58.50
5352;DHT22;2698;51.454;6.736;2022-07-12T11:05:10;27.50;59.00
5352;DHT22;2698;51.454;6.736;2022-07-12T11:07:38;27.70;59.00
5352;DHT22;2698;51.454;6.736;2022-07-12T11:10:05;27.40;57.00
5352;DHT22;2698;51.454;6.736;2022-07-12T11:12:33;27.60;57.80
5352;DHT22;2698;51.454;6.736;2022-07-12T11:15:01;27.60;58.50
5352;DHT22;2698;51.454;6.736;2022-07-12T11:17:29;27.90;57.30
5352;DHT22;2698;51.454;6.736;2022-07-12T11:20:08;28.00;56.10
5352;DHT22;2698;51.454;6.736;2022-07-12T11:22:37;27.80;54.40
5352;DHT22;2698;51.454;6.736;2022-07-12T11:25:07;27.50;55.10
5352;DHT22;2698;51.454;6.736;2022-07-12T11:27:35;27.60;54.40
5352;DHT22;2698;51.454;6.736;2022-07-12T11:30:03;27.90;55.00
5352;DHT22;2698;51.454;6.736;2022-07-12T11:32:34;28.10;54.00
5352;DHT22;2698;51.454;6.736;2022-07-12T11:35:02;28.10;53.40
5352;DHT22;2698;51.454;6.736;2022-07-12T11:37:29;28.30;50.80
5352;DHT22;2698;51.454;6.736;2022-07-12T11:39:57;28.20;51.50
5352;DHT22;2698;51.454;6.736;2022-07-12T11:42:24;28.30;52.40
5352;DHT22;2698;51.454;6.736;2022-07-12T11:44:52;28.60;52.00
5352;DHT22;2698;51.454;6.736;2022-07-12T11:47:19;28.90;50.80
5352;DHT22;2698;51.454;6.736;2022-07-12T11:49:48;29.10;50.80
5352;DHT22;2698;51.454;6.736;2022-07-12T11:52:16;29.20;51.20
5352;DHT22;2698;51.454;6.736;2022-07-12T11:54:44;28.70;50.60
5352;DHT22;2698;51.454;6.736;2022-07-12T11:57:12;28.90;50.30
5352;DHT22;2698;51.454;6.736;2022-07-12T11:59:40;28.70;50.10
5352;DHT22;2698;51.454;6.736;2022-07-12T12:02:07;28.90;49.50
5352;DHT22;2698;51.454;6.736;2022-07-12T12:04:45;28.50;48.50
5352;DHT22;2698;51.454;6.736;2022-07-12T12:07:12;28.60;47.40
5352;DHT22;2698;51.454;6.736;2022-07-12T12:10:00;28.60;46.80
5352;DHT22;2698;51.454;6.736;2022-07-12T12:12:35;28.60;47.30
5352;DHT22;2698;51.454;6.736;2022-07-12T12:15:04;28.70;47.00
5352;DHT22;2698;51.454;6.736;2022-07-12T12:17:32;29.00;47.30
5352;DHT22;2698;51.454;6.736;2022-07-12T12:20:10;29.10;45.90
5352;DHT22;2698;51.454;6.736;2022-07-12T12:22:38;29.10;45.90
5352;DHT22;2698;51.454;6.736;2022-07-12T12:25:06;29.10;44.80
5352;DHT22;2698;51.454;6.736;2022-07-12T12:27:45;29.20;44.30
5352;DHT22;2698;51.454;6.736;2022-07-12T12:30:13;29.30;44.50
5352;DHT22;2698;51.454;6.736;2022-07-12T12:32:50;29.10;43.50
5352;DHT22;2698;51.454;6.736;2022-07-12T12:35:19;29.10;43.60
5352;DHT22;2698;51.454;6.736;2022-07-12T12:37:53;29.10;43.30
5352;DHT22;2698;51.454;6.736;2022-07-12T12:40:24;29.20;41.20
5352;DHT22;2698;51.454;6.736;2022-07-12T12:43:04;29.40;42.50
5352;DHT22;2698;51.454;6.736;2022-07-12T12:45:31;29.20;42.80
5352;DHT22;2698;51.454;6.736;2022-07-12T12:48:01;29.20;43.10
5352;DHT22;2698;51.454;6.736;2022-07-12T12:50:38;28.90;42.20
5352;DHT22;2698;51.454;6.736;2022-07-12T12:53:15;29.00;42.60
5352;DHT22;2698;51.454;6.736;2022-07-12T12:55:44;28.70;41.70
5352;DHT22;2698;51.454;6.736;2022-07-12T12:58:13;28.70;41.60
5352;DHT22;2698;51.454;6.736;2022-07-12T13:00:42;28.90;42.60
5352;DHT22;2698;51.454;6.736;2022-07-12T13:03:10;29.10;42.80
5352;DHT22;2698;51.454;6.736;2022-07-12T13:05:38;28.80;41.90
5352;DHT22;2698;51.454;6.736;2022-07-12T13:08:08;29.30;42.00
5352;DHT22;2698;51.454;6.736;2022-07-12T13:10:35;29.40;41.60
5352;DHT22;2698;51.454;6.736;2022-07-12T13:13:03;29.30;41.10
5352;DHT22;2698;51.454;6.736;2022-07-12T13:15:31;29.30;41.70
5352;DHT22;2698;51.454;6.736;2022-07-12T13:17:59;29.40;41.40
5352;DHT22;2698;51.454;6.736;2022-07-12T13:20:27;29.20;41.70
5352;DHT22;2698;51.454;6.736;2022-07-12T13:22:54;29.20;41.60
5352;DHT22;2698;51.454;6.736;2022-07-12T13:25:21;29.40;41.40
5352;DHT22;2698;51.454;6.736;2022-07-12T13:27:49;29.30;41.00
5352;DHT22;2698;51.454;6.736;2022-07-12T13:30:17;29.40;41.70
5352;DHT22;2698;51.454;6.736;2022-07-12T13:32:45;29.30;41.60
5352;DHT22;2698;51.454;6.736;2022-07-12T13:35:13;29.50;42.40
5352;DHT22;2698;51.454;6.736;2022-07-12T13:37:41;29.40;40.60
5352;DHT22;2698;51.454;6.736;2022-07-12T13:40:09;29.20;40.40
5352;DHT22;2698;51.454;6.736;2022-07-12T13:42:43;28.90;40.10
5352;DHT22;2698;51.454;6.736;2022-07-12T13:45:13;29.00;40.20
5352;DHT22;2698;51.454;6.736;2022-07-12T13:47:40;29.10;40.70
5352;DHT22;2698;51.454;6.736;2022-07-12T13:50:12;29.40;41.10
5352;DHT22;2698;51.454;6.736;2022-07-12T13:52:39;29.30;41.30
5352;DHT22;2698;51.454;6.736;2022-07-12T13:55:07;29.20;40.70
5352;DHT22;2698;51.454;6.736;2022-07-12T13:57:35;28.90;39.50
5352;DHT22;2698;51.454;6.736;2022-07-12T14:00:04;28.80;39.60
5352;DHT22;2698;51.454;6.736;2022-07-12T14:02:31;28.80;39.70
5352;DHT22;2698;51.454;6.736;2022-07-12T14:04:58;29.20;40.90
5352;DHT22;2698;51.454;6.736;2022-07-12T14:07:26;29.30;39.10
5352;DHT22;2698;51.454;6.736;2022-07-12T14:09:53;29.10;38.80
5352;DHT22;2698;51.454;6.736;2022-07-12T14:12:20;29.20;39.10
5352;DHT22;2698;51.454;6.736;2022-07-12T14:14:47;29.20;38.50
5352;DHT22;2698;51.454;6.736;2022-07-12T14:17:31;29.50;39.60
5352;DHT22;2698;51.454;6.736;2022-07-12T14:19:59;29.80;39.00
5352;DHT22;2698;51.454;6.736;2022-07-12T14:22:27;29.60;38.40
5352;DHT22;2698;51.454;6.736;2022-07-12T14:24:55;29.50;38.20
5352;DHT22;2698;51.454;6.736;2022-07-12T14:27:22;29.40;37.50
5352;DHT22;2698;51.454;6.736;2022-07-12T14:29:49;29.40;37.90
5352;DHT22;2698;51.454;6.736;2022-07-12T14:32:16;29.40;36.50
5352;DHT22;2698;51.454;6.736;2022-07-12T14:34:43;29.40;36.50
5352;DHT22;2698;51.454;6.736;2022-07-12T14:37:10;29.40;37.00
5352;DHT22;2698;51.454;6.736;2022-07-12T14:39:38;29.30;35.20
5352;DHT22;2698;51.454;6.736;2022-07-12T14:42:05;29.20;34.60
5352;DHT22;2698;51.454;6.736;2022-07-12T14:44:32;29.20;35.00
5352;DHT22;2698;51.454;6.736;2022-07-12T14:46:59;29.30;33.20
5352;DHT22;2698;51.454;6.736;2022-07-12T14:49:26;29.30;33.90
5352;DHT22;2698;51.454;6.736;2022-07-12T14:51:53;29.70;35.70
5352;DHT22;2698;51.454;6.736;2022-07-12T14:54:20;29.60;35.30
5352;DHT22;2698;51.454;6.736;2022-07-12T14:56:48;29.60;36.00
5352;DHT22;2698;51.454;6.736;2022-07-12T14:59:16;29.90;35.70
5352;DHT22;2698;51.454;6.736;2022-07-12T15:01:42;29.60;34.80
5352;DHT22;2698;51.454;6.736;2022-07-12T15:04:09;29.70;35.60
5352;DHT22;2698;51.454;6.736;2022-07-12T15:06:37;29.80;35.10
5352;DHT22;2698;51.454;6.736;2022-07-12T15:09:04;29.80;35.40
5352;DHT22;2698;51.454;6.736;2022-07-12T15:11:32;30.00;35.60
5352;DHT22;2698;51.454;6.736;2022-07-12T15:14:00;30.00;35.80
5352;DHT22;2698;51.454;6.736;2022-07-12T15:16:27;30.00;35.60
5352;DHT22;2698;51.454;6.736;2022-07-12T15:18:54;29.90;35.00
5352;DHT22;2698;51.454;6.736;2022-07-12T15:21:22;29.90;35.10
5352;DHT22;2698;51.454;6.736;2022-07-12T15:23:49;29.60;34.40
5352;DHT22;2698;51.454;6.736;2022-07-12T15:26:16;29.70;34.50
5352;DHT22;2698;51.454;6.736;2022-07-12T15:28:51;29.70;34.10
5352;DHT22;2698;51.454;6.736;2022-07-12T15:31:20;29.80;34.40
5352;DHT22;2698;51.454;6.736;2022-07-12T15:33:47;29.60;34.00
5352;DHT22;2698;51.454;6.736;2022-07-12T15:36:14;29.40;33.80
5352;DHT22;2698;51.454;6.736;2022-07-12T15:38:42;29.60;33.90
5352;DHT22;2698;51.454;6.736;2022-07-12T15:41:10;29.50;34.40
5352;DHT22;2698;51.454;6.736;2022-07-12T15:43:37;29.40;33.80
5352;DHT22;2698;51.454;6.736;2022-07-12T15:46:05;29.50;34.20
5352;DHT22;2698;51.454;6.736;2022-07-12T15:48:34;29.60;34.70
5352;DHT22;2698;51.454;6.736;2022-07-12T15:51:01;29.70;34.00
5352;DHT22;2698;51.454;6.736;2022-07-12T15:53:28;29.50;33.80
5352;DHT22;2698;51.454;6.736;2022-07-12T15:55:55;29.60;34.10
5352;DHT22;2698;51.454;6.736;2022-07-12T15:58:24;29.50;34.00
5352;DHT22;2698;51.454;6.736;2022-07-12T16:00:51;29.80;33.90
5352;DHT22;2698;51.454;6.736;2022-07-12T16:03:18;29.90;33.90
5352;DHT22;2698;51.454;6.736;2022-07-12T16:05:47;29.90;33.70
5352;DHT22;2698;51.454;6.736;2022-07-12T16:08:14;29.80;33.00
5352;DHT22;2698;51.454;6.736;2022-07-12T16:10:41;29.50;33.10